Time;durP1;ratioP1;P1;durP2;ratioP2;P2;SDS_P1;SDS_P2;PMS_P1;PMS_P2;Temp;Humidity;BMP_temperature;BMP_pressure;BME280_temperature;BME280_humidity;BME280_pressure;Samples;Min_cycle;Max_cycle;Signal;HPM_P1;HPM_P2
2021/07/21 00:00:19;;;;;;;9.03;7.03;;;16.80;99.90;;;;;;4974666;28;20420;-71
2021/07/21 00:02:44;;;;;;;10.03;7.10;;;16.80;99.90;;;;;;4974291;28;20543;-71
2021/07/21 00:05:12;;;;;;;8.40;6.10;;;16.60;99.90;;;;;;4976573;28;20508;-71
2021/07/21 00:07:38;;;;;;;7.90;6.00;;;16.50;99.90;;;;;;4974726;28;20240;-71
2021/07/21 00:10:06;;;;;;;9.80;7.47;;;16.50;99.90;;;;;;4974446;28;20516;-71
2021/07/21 00:15:18;;;;;;;6.70;5.90;;;16.50;99.90;;;;;;4974580;28;20912;-71
2021/07/21 00:17:45;;;;;;;7.37;5.90;;;16.40;99.90;;;;;;4974033;28;20434;-71
2021/07/21 00:20:14;;;;;;;8.18;5.88;;;16.40;99.90;;;;;;4974594;28;20891;-71
2021/07/21 00:22:45;;;;;;;7.53;5.50;;;16.40;99.90;;;;;;4974430;28;20197;-70
2021/07/21 00:25:15;;;;;;;6.83;5.40;;;16.40;99.90;;;;;;4974366;28;20402;-71
2021/07/21 00:27:42;;;;;;;9.43;6.27;;;16.50;99.90;;;;;;4978140;28;20539;-70
2021/07/21 00:30:11;;;;;;;6.57;5.83;;;16.50;99.90;;;;;;4978432;28;20419;-70
2021/07/21 00:32:37;;;;;;;9.10;6.93;;;16.50;99.90;;;;;;4978097;28;20490;-71
2021/07/21 00:35:12;;;;;;;7.70;6.90;;;16.50;99.90;;;;;;4978547;28;20909;-70
2021/07/21 00:37:38;;;;;;;8.37;6.40;;;16.50;99.90;;;;;;4980004;28;20230;-70
2021/07/21 00:40:06;;;;;;;6.40;5.73;;;16.50;99.90;;;;;;4978040;28;20451;-71
2021/07/21 00:42:31;;;;;;;9.53;7.17;;;16.50;99.90;;;;;;4977808;28;20431;-71
2021/07/21 00:44:57;;;;;;;7.77;6.33;;;16.30;99.90;;;;;;4977998;28;20470;-70
2021/07/21 00:47:23;;;;;;;7.83;6.10;;;16.10;99.90;;;;;;4977551;28;20193;-70
2021/07/21 00:49:48;;;;;;;8.70;6.40;;;16.10;99.90;;;;;;4977529;28;20208;-70
2021/07/21 00:52:16;;;;;;;6.93;6.27;;;16.20;99.90;;;;;;4977756;28;20200;-70
2021/07/21 00:54:42;;;;;;;8.10;6.93;;;16.20;99.90;;;;;;4977963;28;20196;-70
2021/07/21 00:57:09;;;;;;;9.60;6.10;;;16.20;99.90;;;;;;4978193;28;20408;-70
2021/07/21 00:59:35;;;;;;;6.53;5.53;;;16.20;99.90;;;;;;4977489;28;20208;-70
2021/07/21 01:02:01;;;;;;;8.17;6.00;;;16.20;99.90;;;;;;4977910;28;20743;-71
2021/07/21 01:04:29;;;;;;;8.32;7.50;;;16.30;99.90;;;;;;4975858;28;20772;-71
2021/07/21 01:06:55;;;;;;;8.30;7.30;;;16.30;99.90;;;;;;4977692;28;20568;-70
2021/07/21 01:09:22;;;;;;;7.50;6.53;;;16.30;99.90;;;;;;4977535;28;20436;-70
2021/07/21 01:12:02;;;;;;;10.07;6.60;;;16.30;99.90;;;;;;4977610;28;20459;-70
2021/07/21 01:14:41;;;;;;;9.63;6.40;;;16.30;99.90;;;;;;4976811;28;20546;-71
2021/07/21 01:17:14;;;;;;;10.57;6.83;;;16.30;99.90;;;;;;4977333;28;20428;-70
2021/07/21 01:19:45;;;;;;;6.50;5.67;;;16.30;99.90;;;;;;4977335;28;20743;-70
2021/07/21 01:22:24;;;;;;;7.83;6.73;;;16.20;99.90;;;;;;4977529;28;20429;-70
2021/07/21 01:25:09;;;;;;;8.63;6.83;;;16.20;99.90;;;;;;4976810;28;20902;-70
2021/07/21 01:27:42;;;;;;;10.93;8.00;;;16.10;99.90;;;;;;4977642;28;20411;-70
2021/07/21 01:30:11;;;;;;;8.00;6.80;;;16.00;99.90;;;;;;4959524;28;20433;-70
2021/07/21 01:32:39;;;;;;;8.73;6.97;;;16.00;99.90;;;;;;4976979;28;20476;-70
2021/07/21 01:35:27;;;;;;;12.93;6.63;;;15.80;99.90;;;;;;4977516;28;20817;-70
2021/07/21 01:37:59;;;;;;;8.87;7.43;;;15.60;99.90;;;;;;4961671;28;20409;-71
2021/07/21 01:40:57;;;;;;;9.07;6.40;;;15.50;99.90;;;;;;4978977;28;20412;-71
2021/07/21 01:43:28;;;;;;;9.43;7.80;;;15.50;99.90;;;;;;4917427;29;20434;-69
2021/07/21 01:45:55;;;;;;;8.03;6.33;;;15.50;99.90;;;;;;4918199;29;20186;-70
2021/07/21 01:48:23;;;;;;;7.13;6.43;;;15.60;99.90;;;;;;4917185;29;20443;-70
2021/07/21 01:50:51;;;;;;;9.30;6.80;;;15.60;99.90;;;;;;4917345;29;20419;-70
2021/07/21 01:53:19;;;;;;;7.13;6.13;;;15.60;99.90;;;;;;4917430;29;20537;-70
2021/07/21 01:55:44;;;;;;;8.73;6.57;;;15.70;99.90;;;;;;4918431;29;20415;-70
2021/07/21 01:58:14;;;;;;;8.53;6.33;;;15.70;99.90;;;;;;4918526;29;20422;-70
2021/07/21 02:00:41;;;;;;;13.47;7.20;;;15.70;99.90;;;;;;4918350;29;20552;-70
2021/07/21 02:03:08;;;;;;;7.90;6.47;;;15.70;99.90;;;;;;4917098;29;20491;-70
2021/07/21 02:05:34;;;;;;;9.07;6.00;;;15.70;99.90;;;;;;4917048;29;20443;-71
2021/07/21 02:08:01;;;;;;;7.63;6.33;;;15.70;99.90;;;;;;4917028;29;20419;-71
2021/07/21 02:10:28;;;;;;;8.93;7.33;;;15.80;99.90;;;;;;4916754;29;20427;-71
2021/07/21 02:13:04;;;;;;;8.23;6.07;;;15.60;99.90;;;;;;4901039;29;20470;-71
2021/07/21 02:15:30;;;;;;;7.67;6.30;;;15.60;99.90;;;;;;4916421;29;20831;-71
2021/07/21 02:17:56;;;;;;;9.90;6.87;;;15.60;99.90;;;;;;4916391;29;20807;-71
2021/07/21 02:20:25;;;;;;;8.00;6.40;;;15.70;99.90;;;;;;4962566;28;20499;-71
2021/07/21 02:22:51;;;;;;;9.17;6.27;;;15.70;99.90;;;;;;4977441;28;20933;-70
2021/07/21 02:25:20;;;;;;;7.10;6.13;;;15.70;99.90;;;;;;4975779;28;20442;-70
2021/07/21 02:27:45;;;;;;;7.43;5.90;;;15.60;99.90;;;;;;4976290;28;20709;-70
2021/07/21 02:30:13;;;;;;;6.83;6.00;;;15.60;99.90;;;;;;4976160;28;20415;-70
2021/07/21 02:32:52;;;;;;;8.87;7.10;;;15.60;99.90;;;;;;4975553;28;20216;-70
2021/07/21 02:35:21;;;;;;;7.70;6.60;;;15.40;99.90;;;;;;4976007;28;20442;-70
2021/07/21 02:37:49;;;;;;;8.50;6.83;;;15.30;99.90;;;;;;4975761;28;20405;-70
2021/07/21 02:40:17;;;;;;;10.47;6.33;;;15.40;99.90;;;;;;4975744;28;20408;-71
2021/07/21 02:42:43;;;;;;;8.30;6.80;;;15.40;99.90;;;;;;4958208;28;20436;-71
2021/07/21 02:45:09;;;;;;;9.53;6.40;;;15.40;99.90;;;;;;4975623;28;20427;-70
2021/07/21 02:47:34;;;;;;;7.50;6.70;;;15.40;99.90;;;;;;4975580;28;20173;-70
2021/07/21 02:50:00;;;;;;;9.87;6.40;;;15.50;99.90;;;;;;4975221;28;20412;-71
2021/07/21 02:52:29;;;;;;;6.97;5.80;;;15.50;99.90;;;;;;4975416;28;20204;-70
2021/07/21 02:55:16;;;;;;;11.13;6.50;;;15.50;99.90;;;;;;4975580;28;20204;-70
2021/07/21 02:58:03;;;;;;;9.47;6.13;;;15.50;99.90;;;;;;4975563;28;20396;-70
2021/07/21 03:00:30;;;;;;;7.30;6.00;;;15.50;99.90;;;;;;4975517;28;20837;-70
2021/07/21 03:02:58;;;;;;;12.53;7.20;;;15.50;99.90;;;;;;4975380;28;20952;-70
2021/07/21 03:05:30;;;;;;;11.13;6.77;;;15.50;99.90;;;;;;4974964;28;20435;-70
2021/07/21 03:07:57;;;;;;;8.53;5.93;;;15.50;99.90;;;;;;4975186;28;20475;-70
2021/07/21 03:10:24;;;;;;;9.87;7.00;;;15.50;99.90;;;;;;4975062;28;20413;-70
2021/07/21 03:13:03;;;;;;;9.95;7.10;;;15.50;99.90;;;;;;4974843;28;20452;-70
2021/07/21 03:15:32;;;;;;;11.97;6.97;;;15.50;99.90;;;;;;4974916;28;20536;-70
2021/07/21 03:18:00;;;;;;;7.07;6.37;;;15.40;99.90;;;;;;4974847;28;20491;-70
2021/07/21 03:20:26;;;;;;;7.60;6.10;;;15.40;99.90;;;;;;4975303;28;20412;-70
2021/07/21 03:22:55;;;;;;;19.13;6.40;;;15.30;99.90;;;;;;4974966;28;20495;-70
2021/07/21 03:25:22;;;;;;;8.23;6.40;;;15.40;99.90;;;;;;4974626;28;20448;-70
2021/07/21 03:27:50;;;;;;;10.00;6.60;;;15.40;99.90;;;;;;4974878;28;20416;-70
2021/07/21 03:30:17;;;;;;;9.97;6.40;;;15.30;99.90;;;;;;4975009;28;20419;-70
2021/07/21 03:32:44;;;;;;;9.00;6.13;;;15.30;99.90;;;;;;4974780;28;20468;-70
2021/07/21 03:35:11;;;;;;;7.10;6.40;;;15.30;99.90;;;;;;4957697;28;20416;-71
2021/07/21 03:37:40;;;;;;;8.73;6.30;;;15.30;99.90;;;;;;4974474;28;20400;-71
2021/07/21 03:40:07;;;;;;;8.60;6.63;;;15.30;99.90;;;;;;4974936;28;20499;-71
2021/07/21 03:42:35;;;;;;;10.20;6.47;;;15.30;99.90;;;;;;4974332;28;20472;-71
2021/07/21 03:51:44;;;;;;;9.23;6.30;;;15.30;99.90;;;;;;4974045;28;20383;-71
2021/07/21 03:54:11;;;;;;;6.53;5.93;;;15.30;99.90;;;;;;4974403;28;20487;-71
2021/07/21 03:56:38;;;;;;;8.27;6.60;;;15.30;99.90;;;;;;4974806;28;20495;-71
2021/07/21 03:59:05;;;;;;;7.83;6.90;;;15.30;99.90;;;;;;4975256;28;20420;-70
2021/07/21 04:01:33;;;;;;;8.90;6.40;;;15.30;99.90;;;;;;4977811;28;20854;-71
2021/07/21 04:04:01;;;;;;;9.80;6.17;;;15.30;99.90;;;;;;4978275;28;20929;-71
2021/07/21 04:06:31;;;;;;;7.47;6.07;;;15.30;99.90;;;;;;4961014;28;20416;-71
2021/07/21 04:09:04;;;;;;;7.43;6.70;;;15.20;99.90;;;;;;4978432;28;20498;-71
2021/07/21 04:11:31;;;;;;;6.20;5.60;;;15.20;99.90;;;;;;4978573;28;20963;-71
2021/07/21 04:13:59;;;;;;;9.30;6.87;;;15.20;99.90;;;;;;4978699;28;20459;-71
2021/07/21 04:16:26;;;;;;;6.90;6.20;;;15.20;99.90;;;;;;4978112;28;20770;-71
2021/07/21 04:18:51;;;;;;;9.13;6.70;;;15.20;99.90;;;;;;4978808;28;20393;-71
2021/07/21 04:21:17;;;;;;;10.60;6.37;;;15.20;99.90;;;;;;4978118;28;20495;-71
2021/07/21 04:23:44;;;;;;;7.77;6.40;;;15.20;99.90;;;;;;4977994;28;20276;-71
2021/07/21 04:26:10;;;;;;;6.70;5.80;;;15.30;99.90;;;;;;4977676;28;20181;-71
2021/07/21 04:28:38;;;;;;;7.63;6.50;;;15.30;99.90;;;;;;4978354;28;20803;-71
2021/07/21 04:31:05;;;;;;;9.40;7.53;;;15.30;99.90;;;;;;4960480;28;20507;-71
2021/07/21 04:33:32;;;;;;;9.17;6.47;;;15.30;99.90;;;;;;4978167;28;20996;-71
2021/07/21 04:35:59;;;;;;;7.27;6.37;;;15.20;99.90;;;;;;4978571;28;20411;-70
2021/07/21 04:38:25;;;;;;;9.00;6.60;;;15.30;99.90;;;;;;4978042;28;20820;-71
2021/07/21 04:40:53;;;;;;;9.17;6.50;;;15.30;99.90;;;;;;4977948;28;20499;-71
2021/07/21 04:43:19;;;;;;;8.83;6.67;;;15.30;99.90;;;;;;4977658;28;20479;-71
2021/07/21 04:45:48;;;;;;;7.77;6.23;;;15.30;99.90;;;;;;4977663;28;20451;-71
2021/07/21 04:48:15;;;;;;;8.23;7.40;;;15.30;99.90;;;;;;4978034;28;20512;-71
2021/07/21 04:50:45;;;;;;;8.10;7.20;;;15.30;99.90;;;;;;4978443;28;20819;-71
2021/07/21 04:53:12;;;;;;;7.33;6.60;;;15.30;99.90;;;;;;4977722;28;20910;-71
2021/07/21 04:55:40;;;;;;;8.30;7.00;;;15.30;99.90;;;;;;4977547;28;20412;-71
2021/07/21 04:58:06;;;;;;;13.10;7.70;;;15.20;99.90;;;;;;4977775;28;20404;-71
2021/07/21 05:00:31;;;;;;;8.30;6.43;;;15.10;99.90;;;;;;4977471;28;20409;-71
2021/07/21 05:02:58;;;;;;;8.60;7.20;;;15.10;99.90;;;;;;4977902;28;20192;-71
2021/07/21 05:05:24;;;;;;;9.10;6.77;;;15.20;99.90;;;;;;4977139;28;20259;-70
2021/07/21 05:07:50;;;;;;;10.33;7.07;;;15.30;99.90;;;;;;4977726;28;20400;-71
2021/07/21 05:10:15;;;;;;;10.73;6.90;;;15.30;99.90;;;;;;4977567;28;20490;-71
2021/07/21 05:12:44;;;;;;;11.30;6.90;;;15.40;99.90;;;;;;4977022;28;20300;-71
2021/07/21 05:15:11;;;;;;;9.47;7.20;;;15.40;99.90;;;;;;4977950;28;20255;-71
2021/07/21 05:17:37;;;;;;;8.83;7.50;;;15.40;99.90;;;;;;4977397;28;20524;-71
2021/07/21 05:20:05;;;;;;;10.27;7.60;;;15.40;99.90;;;;;;4979316;28;20428;-72
2021/07/21 05:22:30;;;;;;;10.40;7.20;;;15.30;99.90;;;;;;4963990;28;20212;-71
2021/07/21 05:24:56;;;;;;;7.97;7.10;;;15.20;99.90;;;;;;4978672;28;20923;-72
2021/07/21 05:27:21;;;;;;;8.83;6.67;;;15.00;99.90;;;;;;4980911;28;20184;-72
2021/07/21 05:29:47;;;;;;;9.73;7.10;;;15.10;99.90;;;;;;4979884;28;20326;-71
2021/07/21 05:32:12;;;;;;;11.33;8.20;;;15.10;99.90;;;;;;4980284;28;20216;-73
2021/07/21 05:34:38;;;;;;;8.93;7.37;;;15.30;99.90;;;;;;4983708;28;20346;-71
2021/07/21 05:37:04;;;;;;;8.47;6.57;;;15.30;99.90;;;;;;4958795;29;20261;-71
2021/07/21 05:39:30;;;;;;;11.37;7.77;;;15.40;99.90;;;;;;4957653;29;20169;-71
2021/07/21 05:41:56;;;;;;;10.80;7.50;;;15.50;99.90;;;;;;4958154;28;20755;-72
2021/07/21 05:44:25;;;;;;;8.95;8.05;;;15.50;99.90;;;;;;4957890;29;20431;-73
2021/07/21 05:46:51;;;;;;;11.40;7.90;;;15.60;99.90;;;;;;4941329;29;20194;-71
2021/07/21 05:49:16;;;;;;;11.50;8.20;;;15.70;99.90;;;;;;4958133;29;20529;-71
2021/07/21 05:51:42;;;;;;;11.40;8.03;;;15.70;99.90;;;;;;4974393;28;20189;-69
2021/07/21 05:54:09;;;;;;;10.00;7.43;;;15.80;99.90;;;;;;4957165;28;20221;-70
2021/07/21 05:56:34;;;;;;;13.40;8.13;;;15.90;99.90;;;;;;4973261;28;20975;-70
2021/07/21 05:59:00;;;;;;;8.70;7.37;;;15.90;99.90;;;;;;4959783;28;20506;-70
2021/07/21 06:01:25;;;;;;;9.20;7.90;;;16.00;99.90;;;;;;4976118;28;20541;-70
2021/07/21 06:03:51;;;;;;;10.17;7.47;;;16.00;99.90;;;;;;4975835;28;20288;-72
2021/07/21 06:06:17;;;;;;;11.10;8.40;;;16.10;99.90;;;;;;4975706;28;20211;-70
2021/07/21 06:08:43;;;;;;;10.63;7.87;;;16.10;99.90;;;;;;4977209;28;20204;-72
2021/07/21 06:11:09;;;;;;;11.63;6.80;;;16.20;99.90;;;;;;4976220;28;20188;-72
2021/07/21 06:13:36;;;;;;;12.67;8.60;;;16.30;99.90;;;;;;4975613;28;20209;-69
2021/07/21 06:16:08;;;;;;;10.27;7.50;;;16.30;99.90;;;;;;4975980;28;20809;-70
2021/07/21 06:18:34;;;;;;;9.67;7.37;;;16.40;99.90;;;;;;4968411;28;20459;-70
2021/07/21 06:21:01;;;;;;;13.70;7.47;;;16.50;99.90;;;;;;4976535;28;20438;-70
2021/07/21 06:23:27;;;;;;;10.27;8.07;;;16.60;99.90;;;;;;4973845;28;20451;-70
2021/07/21 06:25:52;;;;;;;11.13;6.90;;;16.60;99.90;;;;;;4975335;28;20428;-70
2021/07/21 06:28:19;;;;;;;10.00;8.30;;;16.70;99.90;;;;;;4976196;28;20448;-70
2021/07/21 06:30:44;;;;;;;20.23;7.80;;;16.70;99.90;;;;;;4976339;28;20192;-71
2021/07/21 06:33:10;;;;;;;9.27;8.00;;;16.80;99.90;;;;;;4975823;28;20783;-71
2021/07/21 06:35:36;;;;;;;9.03;6.90;;;16.90;99.90;;;;;;4969393;28;20181;-70
2021/07/21 06:38:02;;;;;;;7.70;6.80;;;17.00;99.90;;;;;;4976652;28;20611;-70
2021/07/21 06:40:28;;;;;;;11.43;7.80;;;17.10;99.90;;;;;;4975895;28;20440;-70
2021/07/21 06:42:53;;;;;;;13.43;7.27;;;17.10;99.90;;;;;;4975749;28;20212;-70
2021/07/21 06:45:19;;;;;;;8.13;6.60;;;17.20;99.90;;;;;;4976733;28;20184;-72
2021/07/21 06:47:44;;;;;;;9.87;7.80;;;17.30;99.90;;;;;;4976393;28;20611;-71
2021/07/21 06:50:10;;;;;;;10.27;7.73;;;17.40;99.90;;;;;;4975834;28;20200;-71
2021/07/21 06:52:36;;;;;;;8.90;7.30;;;17.50;99.90;;;;;;4975233;28;20294;-71
2021/07/21 06:55:03;;;;;;;16.20;8.47;;;17.50;99.90;;;;;;4971828;28;20556;-70
2021/07/21 06:57:28;;;;;;;9.43;7.50;;;17.60;99.90;;;;;;4957175;28;20200;-71
2021/07/21 06:59:54;;;;;;;12.50;8.50;;;17.70;99.90;;;;;;4972664;28;20487;-71
2021/07/21 07:02:19;;;;;;;12.70;7.83;;;17.80;99.90;;;;;;4975703;28;20674;-71
2021/07/21 07:04:45;;;;;;;15.30;7.73;;;17.90;99.90;;;;;;4974922;28;20247;-71
2021/07/21 07:07:11;;;;;;;11.47;8.30;;;18.00;99.90;;;;;;4975624;28;20181;-71
2021/07/21 07:09:36;;;;;;;10.23;8.10;;;18.10;99.90;;;;;;4975854;28;20551;-71
2021/07/21 07:12:02;;;;;;;11.40;7.97;;;18.20;99.90;;;;;;4974044;28;20961;-71
2021/07/21 07:14:27;;;;;;;13.30;7.20;;;18.30;99.90;;;;;;4974594;28;20212;-71
2021/07/21 07:16:53;;;;;;;8.50;6.40;;;18.40;99.90;;;;;;4974498;28;20646;-71
2021/07/21 07:19:19;;;;;;;8.55;6.88;;;18.50;99.90;;;;;;4973604;28;20414;-71
2021/07/21 07:21:44;;;;;;;8.20;6.47;;;18.70;99.90;;;;;;4975028;28;20176;-71
2021/07/21 07:24:10;;;;;;;6.77;6.07;;;18.80;99.90;;;;;;4975676;28;20666;-71
2021/07/21 07:26:36;;;;;;;8.50;5.40;;;18.90;99.90;;;;;;4973311;28;20177;-71
2021/07/21 07:29:03;;;;;;;7.27;5.53;;;19.00;99.90;;;;;;4965569;28;20401;-71
2021/07/21 07:31:29;;;;;;;9.10;5.90;;;19.20;99.90;;;;;;4973661;28;20642;-71
2021/07/21 07:33:55;;;;;;;10.60;6.33;;;19.20;99.90;;;;;;4973964;28;20498;-71
2021/07/21 07:36:20;;;;;;;9.20;6.30;;;19.40;99.90;;;;;;4974424;28;20451;-70
2021/07/21 07:38:46;;;;;;;9.17;6.00;;;19.40;99.90;;;;;;4973930;28;20219;-71
2021/07/21 07:41:12;;;;;;;7.10;4.90;;;19.50;99.90;;;;;;4974437;28;20694;-71
2021/07/21 07:43:38;;;;;;;7.33;5.37;;;19.60;99.90;;;;;;4974487;28;20247;-71
2021/07/21 07:46:08;;;;;;;6.80;5.67;;;19.80;99.20;;;;;;4975160;28;20634;-71
2021/07/21 07:48:34;;;;;;;6.03;5.40;;;19.90;98.90;;;;;;4973734;28;20451;-71
2021/07/21 07:51:00;;;;;;;6.70;6.00;;;20.00;98.50;;;;;;4975490;28;20416;-71
2021/07/21 07:53:26;;;;;;;6.23;5.43;;;20.10;98.20;;;;;;4963478;28;20465;-70
2021/07/21 07:55:52;;;;;;;9.43;6.10;;;20.10;98.10;;;;;;4957345;28;20427;-70
2021/07/21 07:58:17;;;;;;;9.37;6.40;;;20.10;98.00;;;;;;4957328;28;20534;-70
2021/07/21 08:00:44;;;;;;;8.33;6.03;;;20.10;97.20;;;;;;4938733;28;20467;-71
2021/07/21 08:03:09;;;;;;;8.65;6.47;;;20.20;96.80;;;;;;4958515;28;20521;-71
2021/07/21 08:05:37;;;;;;;7.83;5.50;;;20.30;96.60;;;;;;4974113;28;20224;-70
2021/07/21 08:08:03;;;;;;;13.10;5.80;;;20.30;96.30;;;;;;4973805;28;20654;-71
2021/07/21 08:10:28;;;;;;;7.10;5.10;;;20.40;96.20;;;;;;4974260;28;20420;-71
2021/07/21 08:12:54;;;;;;;6.23;5.13;;;20.40;95.40;;;;;;4974346;28;20219;-71
2021/07/21 08:15:20;;;;;;;7.03;5.43;;;20.50;95.50;;;;;;4973135;28;20189;-71
2021/07/21 08:17:45;;;;;;;7.57;5.47;;;20.50;94.90;;;;;;4972404;28;20188;-71
2021/07/21 08:20:12;;;;;;;8.33;5.73;;;20.50;94.40;;;;;;4976248;28;20439;-70
2021/07/21 08:22:40;;;;;;;14.73;6.67;;;20.50;94.60;;;;;;4974852;28;20201;-70
2021/07/21 08:25:15;;;;;;;12.33;6.30;;;20.50;94.40;;;;;;4973460;28;20412;-71
2021/07/21 08:27:41;;;;;;;9.40;5.80;;;20.60;94.70;;;;;;4974248;28;20931;-71
2021/07/21 08:30:14;;;;;;;6.83;5.10;;;20.50;94.30;;;;;;4974555;28;20416;-70
2021/07/21 08:32:48;;;;;;;8.83;5.80;;;20.70;94.60;;;;;;4975897;28;20188;-69
2021/07/21 08:35:15;;;;;;;6.50;5.33;;;21.00;94.40;;;;;;4953427;29;20993;-70
2021/07/21 08:37:40;;;;;;;8.47;5.30;;;21.30;94.40;;;;;;4963487;28;20444;-69
2021/07/21 08:40:08;;;;;;;7.47;5.53;;;21.50;94.40;;;;;;4974360;28;20436;-70
2021/07/21 08:42:34;;;;;;;5.33;4.83;;;21.70;94.40;;;;;;4974357;28;20432;-70
2021/07/21 08:45:00;;;;;;;7.07;5.10;;;21.90;93.70;;;;;;4973763;28;20418;-70
2021/07/21 08:47:25;;;;;;;5.57;4.90;;;22.00;93.40;;;;;;4975691;28;20181;-70
2021/07/21 08:49:51;;;;;;;7.43;5.50;;;22.10;93.10;;;;;;4977252;28;20432;-71
2021/07/21 08:52:17;;;;;;;5.57;5.00;;;22.00;92.90;;;;;;4976690;28;20252;-71
2021/07/21 08:54:47;;;;;;;8.73;5.33;;;22.10;93.50;;;;;;4976577;28;20732;-71
2021/07/21 08:57:15;;;;;;;7.07;5.30;;;22.10;93.00;;;;;;4971821;28;20916;-72
2021/07/21 08:59:45;;;;;;;7.10;5.80;;;22.10;92.20;;;;;;4957312;29;20417;-70
2021/07/21 09:02:12;;;;;;;6.93;6.23;;;22.00;92.40;;;;;;4957351;29;20556;-71
2021/07/21 09:04:38;;;;;;;6.33;5.33;;;22.00;92.30;;;;;;4964897;28;20438;-71
2021/07/21 09:07:07;;;;;;;6.17;5.30;;;22.10;92.10;;;;;;4977786;28;20432;-71
2021/07/21 09:09:33;;;;;;;8.17;5.13;;;22.20;91.10;;;;;;4988521;28;20434;-70
2021/07/21 09:11:59;;;;;;;8.70;5.40;;;22.00;91.00;;;;;;4980207;28;20765;-70
2021/07/21 09:14:25;;;;;;;6.40;5.50;;;21.80;91.70;;;;;;4996983;28;20455;-71
2021/07/21 09:17:12;;;;;;;6.07;5.10;;;21.80;91.70;;;;;;4996296;28;20411;-71
2021/07/21 09:19:46;;;;;;;7.13;5.60;;;21.70;91.70;;;;;;4997386;28;20408;-71
2021/07/21 09:22:14;;;;;;;6.93;5.27;;;21.70;92.00;;;;;;4997825;28;20188;-70
2021/07/21 09:24:40;;;;;;;7.80;5.57;;;21.70;91.70;;;;;;4996852;28;20518;-69
2021/07/21 09:27:06;;;;;;;7.50;5.90;;;21.70;91.80;;;;;;4996379;28;20416;-70
2021/07/21 09:29:31;;;;;;;7.30;6.33;;;21.80;91.10;;;;;;4996495;28;20180;-69
2021/07/21 09:32:02;;;;;;;7.63;6.23;;;21.80;91.10;;;;;;4996985;28;20172;-69
2021/07/21 09:34:29;;;;;;;6.50;5.70;;;21.90;91.60;;;;;;4996375;28;20200;-69
2021/07/21 09:37:12;;;;;;;5.70;4.93;;;21.90;91.60;;;;;;4997118;28;20418;-70
2021/07/21 09:39:40;;;;;;;7.53;5.67;;;22.10;91.80;;;;;;4996860;28;20391;-70
2021/07/21 09:42:07;;;;;;;7.00;5.40;;;22.20;91.40;;;;;;4996576;28;20422;-70
2021/07/21 09:44:38;;;;;;;7.10;5.63;;;22.40;91.40;;;;;;4996458;28;20904;-71
2021/07/21 09:47:21;;;;;;;6.50;5.90;;;22.50;91.10;;;;;;4996420;28;20398;-70
2021/07/21 09:49:49;;;;;;;5.90;5.30;;;22.40;90.50;;;;;;4996582;28;20502;-69
2021/07/21 09:52:22;;;;;;;8.80;6.43;;;22.20;90.40;;;;;;5000802;28;20435;-69
2021/07/21 09:55:12;;;;;;;9.40;6.07;;;22.20;91.00;;;;;;4996678;28;20446;-70
2021/07/21 09:57:38;;;;;;;12.13;6.50;;;22.20;90.70;;;;;;4996077;28;20434;-70
2021/07/21 10:00:25;;;;;;;9.57;5.70;;;22.30;90.70;;;;;;4996533;28;20422;-70
2021/07/21 10:03:04;;;;;;;7.03;6.10;;;22.30;90.40;;;;;;4996574;28;20419;-70
2021/07/21 10:05:30;;;;;;;7.67;5.73;;;22.20;90.90;;;;;;4980952;28;20542;-70
2021/07/21 10:08:02;;;;;;;8.90;5.77;;;22.20;90.60;;;;;;4977738;28;20408;-70
2021/07/21 10:10:29;;;;;;;5.90;5.30;;;22.20;90.50;;;;;;4977161;28;20256;-70
2021/07/21 10:13:06;;;;;;;7.30;6.47;;;22.10;90.40;;;;;;4977456;28;20490;-69
2021/07/21 10:15:33;;;;;;;8.63;6.50;;;22.20;90.40;;;;;;4979090;28;20400;-69
2021/07/21 10:18:06;;;;;;;7.20;5.67;;;22.40;90.60;;;;;;4985298;28;20414;-70
2021/07/21 10:20:31;;;;;;;6.80;6.10;;;22.40;90.00;;;;;;4981846;28;20413;-71
2021/07/21 10:22:57;;;;;;;6.20;5.60;;;22.60;90.10;;;;;;4976761;28;20424;-70
2021/07/21 10:25:24;;;;;;;8.13;5.87;;;22.80;90.50;;;;;;4976262;28;20542;-70
2021/07/21 10:27:50;;;;;;;9.37;5.77;;;22.90;89.10;;;;;;4977002;28;20449;-70
2021/07/21 10:30:16;;;;;;;8.83;6.17;;;22.90;89.30;;;;;;4976148;28;20419;-70
2021/07/21 10:32:43;;;;;;;6.43;5.27;;;22.90;89.90;;;;;;4976491;28;20436;-68
2021/07/21 10:35:10;;;;;;;7.30;5.80;;;23.00;87.60;;;;;;4975835;28;20431;-69
2021/07/21 10:37:39;;;;;;;6.70;5.87;;;23.20;87.50;;;;;;4976340;28;20408;-70
2021/07/21 10:40:06;;;;;;;9.17;6.83;;;23.10;87.40;;;;;;4976057;28;20404;-72
2021/07/21 10:42:32;;;;;;;9.43;6.60;;;23.30;87.50;;;;;;4977334;28;20503;-70
2021/07/21 10:45:11;;;;;;;8.60;6.47;;;23.40;86.70;;;;;;4977639;28;20408;-70
2021/07/21 10:47:45;;;;;;;6.97;5.90;;;23.40;86.00;;;;;;4977037;28;20897;-70
2021/07/21 10:59:14;;;;;;;6.70;5.90;;;23.90;83.50;;;;;;4957405;28;20807;-69
2021/07/21 11:01:44;;;;;;;9.20;6.33;;;23.90;83.50;;;;;;4960043;28;20456;-70
2021/07/21 11:04:10;;;;;;;7.83;5.97;;;23.90;81.70;;;;;;4963241;28;20519;-70
2021/07/21 11:06:43;;;;;;;6.83;5.50;;;23.90;83.90;;;;;;4962472;29;20461;-70
2021/07/21 11:09:28;;;;;;;6.50;5.90;;;24.00;84.00;;;;;;4966467;28;20401;-70
2021/07/21 11:11:58;;;;;;;8.27;5.97;;;24.20;83.70;;;;;;4964858;28;20499;-70
2021/07/21 11:14:26;;;;;;;7.73;6.30;;;24.30;82.90;;;;;;4965682;29;20454;-70
2021/07/21 11:16:53;;;;;;;8.07;6.60;;;24.30;81.60;;;;;;4963281;29;20911;-69
2021/07/21 11:19:50;;;;;;;9.93;8.77;;;24.50;80.40;;;;;;4963098;28;20420;-70
2021/07/21 11:22:18;;;;;;;8.03;6.70;;;24.50;80.10;;;;;;4964361;28;20444;-70
2021/07/21 11:25:06;;;;;;;7.87;6.17;;;24.70;80.50;;;;;;4969120;29;20404;-69
2021/07/21 11:27:53;;;;;;;6.80;5.60;;;24.30;79.40;;;;;;4969008;29;20423;-70
2021/07/21 11:30:57;;;;;;;9.33;6.93;;;24.10;81.20;;;;;;4964374;29;20409;-70
2021/07/21 11:33:54;;;;;;;9.10;6.57;;;24.00;81.20;;;;;;4967835;28;20568;-69
2021/07/21 11:36:38;;;;;;;8.50;6.13;;;23.90;80.70;;;;;;4970128;29;20413;-70
2021/07/21 11:39:08;;;;;;;8.73;6.30;;;23.90;81.30;;;;;;4966671;29;20412;-70
2021/07/21 11:41:53;;;;;;;8.60;6.37;;;23.60;82.00;;;;;;4970107;29;20393;-70
2021/07/21 11:44:37;;;;;;;6.70;6.00;;;23.40;83.40;;;;;;4972508;29;20413;-70
2021/07/21 11:47:05;;;;;;;7.50;6.17;;;23.30;84.20;;;;;;4955656;29;20486;-70
2021/07/21 11:49:32;;;;;;;7.57;6.33;;;23.40;84.40;;;;;;4972184;29;20421;-70
2021/07/21 11:52:01;;;;;;;7.20;6.03;;;23.60;84.70;;;;;;4986197;28;20424;-69
2021/07/21 11:54:47;;;;;;;6.87;6.00;;;23.80;84.00;;;;;;4988913;28;20483;-70
2021/07/21 11:57:13;;;;;;;7.87;6.37;;;23.70;82.30;;;;;;4982031;28;20422;-70
2021/07/21 11:59:40;;;;;;;9.47;7.10;;;23.70;82.20;;;;;;4959663;29;20425;-70
2021/07/21 12:02:07;;;;;;;6.60;5.47;;;23.90;82.10;;;;;;4957488;28;20181;-70
2021/07/21 12:04:34;;;;;;;7.10;6.17;;;24.10;83.10;;;;;;4963292;28;20438;-70
2021/07/21 12:07:00;;;;;;;8.07;6.20;;;24.40;82.20;;;;;;4975534;28;20432;-70
2021/07/21 12:09:30;;;;;;;7.70;6.87;;;24.50;81.10;;;;;;4976354;28;20476;-70
2021/07/21 12:11:57;;;;;;;7.27;6.10;;;24.50;78.80;;;;;;4975185;28;20176;-70
2021/07/21 12:14:24;;;;;;;6.63;5.97;;;24.30;79.40;;;;;;4975660;28;20464;-70
2021/07/21 12:17:01;;;;;;;7.23;6.53;;;24.40;79.40;;;;;;4987138;28;20428;-70
2021/07/21 12:19:27;;;;;;;7.33;6.10;;;24.60;78.60;;;;;;4993570;28;20936;-70
2021/07/21 12:22:03;;;;;;;6.67;5.97;;;24.40;79.20;;;;;;4996398;28;20478;-70
2021/07/21 12:24:37;;;;;;;11.30;8.10;;;24.50;80.00;;;;;;4999051;28;20422;-70
2021/07/21 12:27:04;;;;;;;8.00;7.20;;;24.50;78.50;;;;;;4999047;28;20570;-71
2021/07/21 12:29:30;;;;;;;8.50;7.10;;;24.10;80.20;;;;;;4999141;28;20407;-71
2021/07/21 12:32:07;;;;;;;8.40;5.90;;;24.10;80.60;;;;;;4999128;28;20414;-72
2021/07/21 12:34:37;;;;;;;7.73;6.93;;;24.10;80.90;;;;;;4999022;28;20203;-71
2021/07/21 12:37:06;;;;;;;8.73;7.30;;;24.10;81.20;;;;;;5014455;28;20413;-71
2021/07/21 12:39:32;;;;;;;8.10;7.30;;;24.20;80.00;;;;;;5014354;28;20412;-71
2021/07/21 12:42:12;;;;;;;7.93;6.67;;;24.00;77.90;;;;;;5005549;28;20411;-71
2021/07/21 12:44:45;;;;;;;12.93;8.13;;;24.00;78.80;;;;;;4998495;28;20465;-70
2021/07/21 12:47:18;;;;;;;8.60;7.70;;;23.80;78.20;;;;;;4996902;28;20439;-70
2021/07/21 12:49:47;;;;;;;7.93;7.13;;;23.80;78.60;;;;;;4997387;28;20451;-71
2021/07/21 12:52:18;;;;;;;7.90;6.60;;;23.80;78.60;;;;;;4980931;28;20977;-71
2021/07/21 12:54:52;;;;;;;8.80;7.20;;;24.00;80.00;;;;;;4997429;28;20512;-71
2021/07/21 12:57:36;;;;;;;8.07;6.60;;;23.90;77.80;;;;;;4989736;28;20430;-71
2021/07/21 13:00:25;;;;;;;6.90;6.20;;;24.10;79.80;;;;;;4996344;28;20435;-71
2021/07/21 13:03:01;;;;;;;7.03;6.33;;;24.40;80.30;;;;;;4991239;28;20439;-72
2021/07/21 13:05:28;;;;;;;7.57;5.87;;;24.50;78.50;;;;;;4997956;28;20442;-71
2021/07/21 13:08:04;;;;;;;7.10;6.40;;;24.70;78.20;;;;;;5007940;28;20493;-71
2021/07/21 13:10:31;;;;;;;7.30;5.67;;;24.90;76.70;;;;;;4981999;28;20443;-71
2021/07/21 13:12:58;;;;;;;8.03;7.20;;;25.00;76.10;;;;;;5007820;28;20549;-71